Hlavní strana
METAR-TAF:

METAR-TAF

Letiště :

Ropná věž

Norne Fpso, Norsko

zeměpisná šířka: 66-01-48N, zeměpisná délka: 008-04-48E, výška: 10 m

Aktuální stav počasí

Zpráva byla vytvořena před 38 minutami, v 13:20 UTC
Severoseverozápadní vítr 27 kt
Teplota 3°C
Vlhkost vzduchu 52%
Tlak 1006 hPa
Viditelnost 10 km a více
Skoro jasno ve výšce 3000 ft
Polojasno ve výšce 4500 ft

METAR: ENNE 181320Z 34027KT 9999 FEW030 SCT045 03/M06 Q1006 W///S4

Čas: 14:58 (13:58 UTC)

Předpověď počasí

Zpráva byla vytvořena před 2 hodinami a 58 minutami, v 11:00 UTC
Předpověď platná od 18 v 12 UTC do 18 v 18 UTC
Severní vítr 22 kt
Viditelnost 10 km a více
Skoro jasno ve výšce 2000 ft, Cumulonimbus.
Oblačno až skoro zataženo ve výšce 3500 ft
Pravděpodobnost 30% :
Dočasný
od 18 v 12 UTC do 18 v 18 UTC
Viditelnost: 4000 m
ve výšce 1400 ft
sněhové přeháňky, déšť, malé kroupy nebo krupky

TAF: ENNE 181100Z 1812/1818 35022KT 9999 FEW020CB BKN035 PROB30 TEMPO 1812/1818 4000 SHSNRAGS VV014

Stav a předpovědi počasí z více než 4 000 letišť (zprávy METAR a TAF).

Červené a žluté tečky na mapě představují dostupné meteorologické stanice.

Když kurzor umístíte na tečku, zobrazí se název stanice.

Pak kliknutím zobrazíte stav a předpověď počasí.

Chcete-li změnit mapu, kliknutím na zelené tlačítko se znaménkem +mapu přiblížíte, kliknutím na zelené tlačítko se znaménkem – mapu oddálíte a kliknutím na zelené šipky přejdete na sousední mapy.


METAR-TAF: